sensor_id;sensor_type;location;lat;lon;timestamp;temperature;humidity
2543;DHT22;1116;51.502;7.414;2023-05-07T00:00:36;15.30;99.90
2543;DHT22;1116;51.502;7.414;2023-05-07T00:03:08;15.30;99.90
2543;DHT22;1116;51.502;7.414;2023-05-07T00:05:45;15.30;99.90
2543;DHT22;1116;51.502;7.414;2023-05-07T00:08:16;14.80;99.90
2543;DHT22;1116;51.502;7.414;2023-05-07T00:10:47;15.60;99.90
2543;DHT22;1116;51.502;7.414;2023-05-07T00:13:18;15.30;99.90
2543;DHT22;1116;51.502;7.414;2023-05-07T00:15:50;15.30;99.90
2543;DHT22;1116;51.502;7.414;2023-05-07T00:18:21;15.30;99.90
2543;DHT22;1116;51.502;7.414;2023-05-07T00:20:55;15.30;99.90
2543;DHT22;1116;51.502;7.414;2023-05-07T00:23:27;15.50;99.90
2543;DHT22;1116;51.502;7.414;2023-05-07T00:25:58;15.30;99.90
2543;DHT22;1116;51.502;7.414;2023-05-07T00:28:29;15.30;99.90
2543;DHT22;1116;51.502;7.414;2023-05-07T00:31:00;15.30;99.90
2543;DHT22;1116;51.502;7.414;2023-05-07T00:33:31;15.30;99.90
2543;DHT22;1116;51.502;7.414;2023-05-07T00:36:05;15.30;99.90
2543;DHT22;1116;51.502;7.414;2023-05-07T00:38:36;15.30;99.90
2543;DHT22;1116;51.502;7.414;2023-05-07T00:41:07;15.30;99.90
2543;DHT22;1116;51.502;7.414;2023-05-07T00:43:38;15.20;99.90
2543;DHT22;1116;51.502;7.414;2023-05-07T00:46:09;15.20;99.90
2543;DHT22;1116;51.502;7.414;2023-05-07T00:48:40;15.20;99.90
2543;DHT22;1116;51.502;7.414;2023-05-07T00:51:14;15.20;99.90
2543;DHT22;1116;51.502;7.414;2023-05-07T00:53:46;15.20;99.90
2543;DHT22;1116;51.502;7.414;2023-05-07T00:56:17;15.20;99.90
2543;DHT22;1116;51.502;7.414;2023-05-07T00:58:49;15.20;99.90
2543;DHT22;1116;51.502;7.414;2023-05-07T01:01:20;15.20;99.90
2543;DHT22;1116;51.502;7.414;2023-05-07T01:03:51;15.20;99.90
2543;DHT22;1116;51.502;7.414;2023-05-07T01:06:25;15.20;99.90
2543;DHT22;1116;51.502;7.414;2023-05-07T01:08:57;15.20;99.90
2543;DHT22;1116;51.502;7.414;2023-05-07T01:11:28;15.20;99.90
2543;DHT22;1116;51.502;7.414;2023-05-07T01:14:00;15.30;99.90
2543;DHT22;1116;51.502;7.414;2023-05-07T01:16:31;15.30;99.90
2543;DHT22;1116;51.502;7.414;2023-05-07T01:19:02;15.20;99.90
2543;DHT22;1116;51.502;7.414;2023-05-07T01:21:37;15.20;99.90
2543;DHT22;1116;51.502;7.414;2023-05-07T01:24:14;15.30;99.90
2543;DHT22;1116;51.502;7.414;2023-05-07T01:26:50;15.20;99.90
2543;DHT22;1116;51.502;7.414;2023-05-07T01:29:21;15.20;99.90
2543;DHT22;1116;51.502;7.414;2023-05-07T01:31:52;15.20;99.90
2543;DHT22;1116;51.502;7.414;2023-05-07T01:34:27;15.30;99.90
2543;DHT22;1116;51.502;7.414;2023-05-07T01:36:58;15.30;99.90
2543;DHT22;1116;51.502;7.414;2023-05-07T01:39:33;15.20;99.90
2543;DHT22;1116;51.502;7.414;2023-05-07T01:42:04;15.20;99.90
2543;DHT22;1116;51.502;7.414;2023-05-07T01:44:35;15.40;99.90
2543;DHT22;1116;51.502;7.414;2023-05-07T01:47:06;15.20;99.90
2543;DHT22;1116;51.502;7.414;2023-05-07T01:49:37;15.20;99.90
2543;DHT22;1116;51.502;7.414;2023-05-07T01:52:10;15.20;99.90
2543;DHT22;1116;51.502;7.414;2023-05-07T01:54:44;15.20;99.90
2543;DHT22;1116;51.502;7.414;2023-05-07T01:57:15;15.20;99.90
2543;DHT22;1116;51.502;7.414;2023-05-07T01:59:46;15.20;99.90
2543;DHT22;1116;51.502;7.414;2023-05-07T02:02:17;15.20;99.90
2543;DHT22;1116;51.502;7.414;2023-05-07T02:04:48;15.10;99.90
2543;DHT22;1116;51.502;7.414;2023-05-07T02:07:19;15.10;99.90
2543;DHT22;1116;51.502;7.414;2023-05-07T02:09:53;15.10;99.90
2543;DHT22;1116;51.502;7.414;2023-05-07T02:12:24;15.10;99.90
2543;DHT22;1116;51.502;7.414;2023-05-07T02:14:55;15.10;99.90
2543;DHT22;1116;51.502;7.414;2023-05-07T02:17:26;15.10;99.90
2543;DHT22;1116;51.502;7.414;2023-05-07T02:20:00;15.10;99.90
2543;DHT22;1116;51.502;7.414;2023-05-07T02:22:31;15.10;99.90
2543;DHT22;1116;51.502;7.414;2023-05-07T02:25:05;15.00;99.90
2543;DHT22;1116;51.502;7.414;2023-05-07T02:27:36;15.10;99.90
2543;DHT22;1116;51.502;7.414;2023-05-07T02:30:08;15.00;99.90
2543;DHT22;1116;51.502;7.414;2023-05-07T02:32:40;15.00;99.90
2543;DHT22;1116;51.502;7.414;2023-05-07T02:35:16;15.00;99.90
2543;DHT22;1116;51.502;7.414;2023-05-07T02:37:47;14.90;99.90
2543;DHT22;1116;51.502;7.414;2023-05-07T02:40:20;14.90;99.90
2543;DHT22;1116;51.502;7.414;2023-05-07T02:42:51;14.90;99.90
2543;DHT22;1116;51.502;7.414;2023-05-07T02:45:22;14.90;99.90
2543;DHT22;1116;51.502;7.414;2023-05-07T02:47:53;14.80;99.90
2543;DHT22;1116;51.502;7.414;2023-05-07T02:50:24;14.80;99.90
2543;DHT22;1116;51.502;7.414;2023-05-07T02:52:55;14.80;99.90
2543;DHT22;1116;51.502;7.414;2023-05-07T02:55:29;14.90;99.90
2543;DHT22;1116;51.502;7.414;2023-05-07T02:58:00;14.80;99.90
2543;DHT22;1116;51.502;7.414;2023-05-07T03:00:31;14.80;99.90
2543;DHT22;1116;51.502;7.414;2023-05-07T03:03:02;14.80;99.90
2543;DHT22;1116;51.502;7.414;2023-05-07T03:05:33;14.80;99.90
2543;DHT22;1116;51.502;7.414;2023-05-07T03:08:04;14.80;99.90
2543;DHT22;1116;51.502;7.414;2023-05-07T03:10:38;14.80;99.90
2543;DHT22;1116;51.502;7.414;2023-05-07T03:13:09;14.80;99.90
2543;DHT22;1116;51.502;7.414;2023-05-07T03:15:39;14.80;99.90
2543;DHT22;1116;51.502;7.414;2023-05-07T03:18:10;14.80;99.90
2543;DHT22;1116;51.502;7.414;2023-05-07T03:20:42;14.70;99.90
2543;DHT22;1116;51.502;7.414;2023-05-07T03:23:13;14.80;99.90
2543;DHT22;1116;51.502;7.414;2023-05-07T03:25:46;14.70;99.90
2543;DHT22;1116;51.502;7.414;2023-05-07T03:28:17;14.70;99.90
2543;DHT22;1116;51.502;7.414;2023-05-07T03:30:51;14.60;99.90
2543;DHT22;1116;51.502;7.414;2023-05-07T03:33:22;14.60;99.90
2543;DHT22;1116;51.502;7.414;2023-05-07T03:35:53;14.60;99.90
2543;DHT22;1116;51.502;7.414;2023-05-07T03:38:24;14.70;99.90
2543;DHT22;1116;51.502;7.414;2023-05-07T03:40:57;14.70;99.90
2543;DHT22;1116;51.502;7.414;2023-05-07T03:43:28;14.70;99.90
2543;DHT22;1116;51.502;7.414;2023-05-07T03:45:59;14.60;99.90
2543;DHT22;1116;51.502;7.414;2023-05-07T03:48:30;14.60;99.90
2543;DHT22;1116;51.502;7.414;2023-05-07T03:51:01;14.60;99.90
2543;DHT22;1116;51.502;7.414;2023-05-07T03:53:31;14.60;99.90
2543;DHT22;1116;51.502;7.414;2023-05-07T03:56:05;14.50;99.90
2543;DHT22;1116;51.502;7.414;2023-05-07T03:58:36;14.50;99.90
2543;DHT22;1116;51.502;7.414;2023-05-07T04:01:07;14.50;99.90
2543;DHT22;1116;51.502;7.414;2023-05-07T04:03:38;14.50;99.90
2543;DHT22;1116;51.502;7.414;2023-05-07T04:06:09;14.50;99.90
2543;DHT22;1116;51.502;7.414;2023-05-07T04:08:43;14.60;99.90
2543;DHT22;1116;51.502;7.414;2023-05-07T04:11:17;14.60;99.90
2543;DHT22;1116;51.502;7.414;2023-05-07T04:13:48;14.60;99.90
2543;DHT22;1116;51.502;7.414;2023-05-07T04:16:19;14.60;99.90
2543;DHT22;1116;51.502;7.414;2023-05-07T04:18:50;14.60;99.90
2543;DHT22;1116;51.502;7.414;2023-05-07T04:21:21;14.60;99.90
2543;DHT22;1116;51.502;7.414;2023-05-07T04:23:53;14.50;99.90
2543;DHT22;1116;51.502;7.414;2023-05-07T04:26:27;14.50;99.90
2543;DHT22;1116;51.502;7.414;2023-05-07T04:28:58;14.50;99.90
2543;DHT22;1116;51.502;7.414;2023-05-07T04:31:29;14.50;99.90
2543;DHT22;1116;51.502;7.414;2023-05-07T04:34:00;14.50;99.90
2543;DHT22;1116;51.502;7.414;2023-05-07T04:36:31;14.60;99.90
2543;DHT22;1116;51.502;7.414;2023-05-07T04:39:05;14.50;99.90
2543;DHT22;1116;51.502;7.414;2023-05-07T04:41:39;14.60;99.90
2543;DHT22;1116;51.502;7.414;2023-05-07T04:44:10;14.60;99.90
2543;DHT22;1116;51.502;7.414;2023-05-07T04:46:41;14.70;99.90
2543;DHT22;1116;51.502;7.414;2023-05-07T04:49:12;14.70;99.90
2543;DHT22;1116;51.502;7.414;2023-05-07T04:51:43;14.80;99.90
2543;DHT22;1116;51.502;7.414;2023-05-07T04:54:14;14.80;99.90
2543;DHT22;1116;51.502;7.414;2023-05-07T04:56:50;14.80;99.90
2543;DHT22;1116;51.502;7.414;2023-05-07T04:59:21;14.90;99.90
2543;DHT22;1116;51.502;7.414;2023-05-07T05:01:52;15.00;99.90
2543;DHT22;1116;51.502;7.414;2023-05-07T05:04:26;15.00;99.90
2543;DHT22;1116;51.502;7.414;2023-05-07T05:06:57;15.20;99.90
2543;DHT22;1116;51.502;7.414;2023-05-07T05:09:28;15.40;99.90
2543;DHT22;1116;51.502;7.414;2023-05-07T05:12:02;15.60;99.90
2543;DHT22;1116;51.502;7.414;2023-05-07T05:14:35;15.90;99.90
2543;DHT22;1116;51.502;7.414;2023-05-07T05:17:05;15.90;99.90
2543;DHT22;1116;51.502;7.414;2023-05-07T05:19:36;16.00;99.90
2543;DHT22;1116;51.502;7.414;2023-05-07T05:22:07;16.00;99.90
2543;DHT22;1116;51.502;7.414;2023-05-07T05:24:38;15.90;99.90
2543;DHT22;1116;51.502;7.414;2023-05-07T05:27:12;15.90;99.90
2543;DHT22;1116;51.502;7.414;2023-05-07T05:29:42;15.90;99.90
2543;DHT22;1116;51.502;7.414;2023-05-07T05:32:13;16.00;99.90
2543;DHT22;1116;51.502;7.414;2023-05-07T05:34:44;16.40;99.90
2543;DHT22;1116;51.502;7.414;2023-05-07T05:37:18;17.30;99.90
2543;DHT22;1116;51.502;7.414;2023-05-07T05:39:49;18.10;99.90
2543;DHT22;1116;51.502;7.414;2023-05-07T05:42:23;18.80;99.90
2543;DHT22;1116;51.502;7.414;2023-05-07T05:44:54;19.70;86.60
2543;DHT22;1116;51.502;7.414;2023-05-07T05:47:25;20.40;54.50
2543;DHT22;1116;51.502;7.414;2023-05-07T05:49:55;20.60;48.70
2543;DHT22;1116;51.502;7.414;2023-05-07T05:52:26;20.80;41.10
2543;DHT22;1116;51.502;7.414;2023-05-07T05:54:57;20.60;41.20
2543;DHT22;1116;51.502;7.414;2023-05-07T06:04:48;19.50;43.20
2543;DHT22;1116;51.502;7.414;2023-05-07T06:07:19;19.10;48.00
2543;DHT22;1116;51.502;7.414;2023-05-07T06:09:50;18.80;52.30
2543;DHT22;1116;51.502;7.414;2023-05-07T06:12:21;18.70;56.50
2543;DHT22;1116;51.502;7.414;2023-05-07T06:14:52;18.60;56.10
2543;DHT22;1116;51.502;7.414;2023-05-07T06:17:23;18.60;55.30
2543;DHT22;1116;51.502;7.414;2023-05-07T06:19:56;19.40;50.50
2543;DHT22;1116;51.502;7.414;2023-05-07T06:22:28;19.10;44.30
2543;DHT22;1116;51.502;7.414;2023-05-07T06:24:59;18.90;46.60
2543;DHT22;1116;51.502;7.414;2023-05-07T06:27:30;18.90;46.70
2543;DHT22;1116;51.502;7.414;2023-05-07T06:30:01;18.90;48.00
2543;DHT22;1116;51.502;7.414;2023-05-07T06:32:32;18.60;48.40
2543;DHT22;1116;51.502;7.414;2023-05-07T06:35:06;18.30;52.80
2543;DHT22;1116;51.502;7.414;2023-05-07T06:37:42;18.20;54.50
2543;DHT22;1116;51.502;7.414;2023-05-07T06:40:15;17.70;56.20
2543;DHT22;1116;51.502;7.414;2023-05-07T06:42:46;18.10;63.40
2543;DHT22;1116;51.502;7.414;2023-05-07T06:45:17;17.90;62.30
2543;DHT22;1116;51.502;7.414;2023-05-07T06:47:48;17.70;69.50
2543;DHT22;1116;51.502;7.414;2023-05-07T06:50:23;17.70;74.20
2543;DHT22;1116;51.502;7.414;2023-05-07T06:52:54;17.90;72.70
2543;DHT22;1116;51.502;7.414;2023-05-07T06:55:25;18.10;63.10
2543;DHT22;1116;51.502;7.414;2023-05-07T06:57:56;18.00;63.90
2543;DHT22;1116;51.502;7.414;2023-05-07T07:00:29;18.10;68.70
2543;DHT22;1116;51.502;7.414;2023-05-07T07:03:02;17.70;63.10
2543;DHT22;1116;51.502;7.414;2023-05-07T07:05:35;17.60;65.80
2543;DHT22;1116;51.502;7.414;2023-05-07T07:08:06;17.40;71.70
2543;DHT22;1116;51.502;7.414;2023-05-07T07:10:38;17.40;75.30
2543;DHT22;1116;51.502;7.414;2023-05-07T07:13:09;17.50;79.40
2543;DHT22;1116;51.502;7.414;2023-05-07T07:15:40;17.70;85.40
2543;DHT22;1116;51.502;7.414;2023-05-07T07:18:13;17.80;79.40
2543;DHT22;1116;51.502;7.414;2023-05-07T07:20:47;17.80;79.90
2543;DHT22;1116;51.502;7.414;2023-05-07T07:23:18;17.90;82.80
2543;DHT22;1116;51.502;7.414;2023-05-07T07:25:49;17.90;79.90
2543;DHT22;1116;51.502;7.414;2023-05-07T07:28:21;17.80;75.30
2543;DHT22;1116;51.502;7.414;2023-05-07T07:30:52;17.80;76.50
2543;DHT22;1116;51.502;7.414;2023-05-07T07:33:23;17.90;77.40
2543;DHT22;1116;51.502;7.414;2023-05-07T07:35:59;17.90;81.40
2543;DHT22;1116;51.502;7.414;2023-05-07T07:38:30;17.90;77.30
2543;DHT22;1116;51.502;7.414;2023-05-07T07:41:02;17.80;81.70
2543;DHT22;1116;51.502;7.414;2023-05-07T07:43:36;18.10;71.30
2543;DHT22;1116;51.502;7.414;2023-05-07T07:46:07;18.10;83.60
2543;DHT22;1116;51.502;7.414;2023-05-07T07:48:41;18.30;81.80
2543;DHT22;1116;51.502;7.414;2023-05-07T07:51:17;18.40;68.60
2543;DHT22;1116;51.502;7.414;2023-05-07T07:53:48;18.40;68.80
2543;DHT22;1116;51.502;7.414;2023-05-07T07:56:19;18.40;68.40
2543;DHT22;1116;51.502;7.414;2023-05-07T07:58:50;18.50;64.60
2543;DHT22;1116;51.502;7.414;2023-05-07T08:01:21;18.50;62.30
2543;DHT22;1116;51.502;7.414;2023-05-07T08:03:52;18.70;69.10
2543;DHT22;1116;51.502;7.414;2023-05-07T08:06:26;18.40;60.30
2543;DHT22;1116;51.502;7.414;2023-05-07T08:08:57;18.30;63.10
2543;DHT22;1116;51.502;7.414;2023-05-07T08:11:28;18.50;69.80
2543;DHT22;1116;51.502;7.414;2023-05-07T08:14:01;18.70;66.50
2543;DHT22;1116;51.502;7.414;2023-05-07T08:16:32;18.80;59.70
2543;DHT22;1116;51.502;7.414;2023-05-07T08:19:03;18.70;58.60
2543;DHT22;1116;51.502;7.414;2023-05-07T08:21:38;18.70;60.00
2543;DHT22;1116;51.502;7.414;2023-05-07T08:24:09;18.80;60.50
2543;DHT22;1116;51.502;7.414;2023-05-07T08:26:41;18.90;60.80
2543;DHT22;1116;51.502;7.414;2023-05-07T08:29:14;19.00;54.10
2543;DHT22;1116;51.502;7.414;2023-05-07T08:31:45;19.00;50.20
2543;DHT22;1116;51.502;7.414;2023-05-07T08:34:16;19.20;52.20
2543;DHT22;1116;51.502;7.414;2023-05-07T08:36:49;18.70;55.00
2543;DHT22;1116;51.502;7.414;2023-05-07T08:39:21;18.80;57.20
2543;DHT22;1116;51.502;7.414;2023-05-07T08:41:57;18.80;55.30
2543;DHT22;1116;51.502;7.414;2023-05-07T08:44:34;18.80;48.90
2543;DHT22;1116;51.502;7.414;2023-05-07T08:47:06;18.90;50.10
2543;DHT22;1116;51.502;7.414;2023-05-07T08:49:38;19.00;48.30
2543;DHT22;1116;51.502;7.414;2023-05-07T08:52:12;19.10;47.80
2543;DHT22;1116;51.502;7.414;2023-05-07T08:54:43;19.20;46.70
2543;DHT22;1116;51.502;7.414;2023-05-07T08:57:16;19.30;45.80
2543;DHT22;1116;51.502;7.414;2023-05-07T08:59:48;19.40;46.80
2543;DHT22;1116;51.502;7.414;2023-05-07T09:02:19;19.40;46.20
2543;DHT22;1116;51.502;7.414;2023-05-07T09:04:50;19.50;47.60
2543;DHT22;1116;51.502;7.414;2023-05-07T09:07:24;19.80;44.90
2543;DHT22;1116;51.502;7.414;2023-05-07T09:09:55;19.90;43.50
2543;DHT22;1116;51.502;7.414;2023-05-07T09:12:30;20.00;44.70
2543;DHT22;1116;51.502;7.414;2023-05-07T09:15:04;20.10;39.50
2543;DHT22;1116;51.502;7.414;2023-05-07T09:17:38;20.10;37.00
2543;DHT22;1116;51.502;7.414;2023-05-07T09:20:10;19.90;36.30
2543;DHT22;1116;51.502;7.414;2023-05-07T09:22:44;19.90;37.60
2543;DHT22;1116;51.502;7.414;2023-05-07T09:25:28;19.80;36.30
2543;DHT22;1116;51.502;7.414;2023-05-07T09:28:00;19.60;37.40
2543;DHT22;1116;51.502;7.414;2023-05-07T09:30:32;19.90;40.60
2543;DHT22;1116;51.502;7.414;2023-05-07T09:33:03;19.90;33.60
2543;DHT22;1116;51.502;7.414;2023-05-07T09:35:34;19.90;39.00
2543;DHT22;1116;51.502;7.414;2023-05-07T09:38:10;20.00;38.00
2543;DHT22;1116;51.502;7.414;2023-05-07T09:40:43;20.10;40.30
2543;DHT22;1116;51.502;7.414;2023-05-07T09:43:14;20.20;33.10
2543;DHT22;1116;51.502;7.414;2023-05-07T09:45:44;20.10;35.60
2543;DHT22;1116;51.502;7.414;2023-05-07T09:48:19;20.30;38.90
2543;DHT22;1116;51.502;7.414;2023-05-07T09:50:52;20.40;31.50
2543;DHT22;1116;51.502;7.414;2023-05-07T09:53:29;20.50;29.50
2543;DHT22;1116;51.502;7.414;2023-05-07T09:56:01;20.50;29.20
2543;DHT22;1116;51.502;7.414;2023-05-07T09:58:37;20.70;27.20
2543;DHT22;1116;51.502;7.414;2023-05-07T10:01:10;20.80;21.80
2543;DHT22;1116;51.502;7.414;2023-05-07T10:03:41;20.80;21.40
2543;DHT22;1116;51.502;7.414;2023-05-07T10:06:15;20.70;21.80
2543;DHT22;1116;51.502;7.414;2023-05-07T10:08:51;20.70;21.80
2543;DHT22;1116;51.502;7.414;2023-05-07T10:11:22;20.90;27.20
2543;DHT22;1116;51.502;7.414;2023-05-07T10:13:53;21.10;25.20
2543;DHT22;1116;51.502;7.414;2023-05-07T10:16:25;21.10;21.00
2543;DHT22;1116;51.502;7.414;2023-05-07T10:18:57;21.10;19.90
2543;DHT22;1116;51.502;7.414;2023-05-07T10:21:31;21.10;19.10
2543;DHT22;1116;51.502;7.414;2023-05-07T10:24:09;21.20;19.40
2543;DHT22;1116;51.502;7.414;2023-05-07T10:26:44;21.30;18.00
2543;DHT22;1116;51.502;7.414;2023-05-07T10:29:25;21.70;20.30
2543;DHT22;1116;51.502;7.414;2023-05-07T10:32:20;22.10;22.80
2543;DHT22;1116;51.502;7.414;2023-05-07T10:34:58;22.00;11.70
2543;DHT22;1116;51.502;7.414;2023-05-07T10:37:31;21.90;13.00
2543;DHT22;1116;51.502;7.414;2023-05-07T10:40:06;22.00;14.10
2543;DHT22;1116;51.502;7.414;2023-05-07T10:42:37;22.00;12.50
2543;DHT22;1116;51.502;7.414;2023-05-07T10:45:12;22.10;12.00
2543;DHT22;1116;51.502;7.414;2023-05-07T10:48:06;22.30;13.00
2543;DHT22;1116;51.502;7.414;2023-05-07T10:51:18;22.40;13.70
2543;DHT22;1116;51.502;7.414;2023-05-07T10:54:20;22.30;13.50
2543;DHT22;1116;51.502;7.414;2023-05-07T10:56:55;22.00;11.80
2543;DHT22;1116;51.502;7.414;2023-05-07T10:59:36;21.80;13.60
2543;DHT22;1116;51.502;7.414;2023-05-07T11:02:13;21.70;13.30
2543;DHT22;1116;51.502;7.414;2023-05-07T11:04:44;22.00;13.70
2543;DHT22;1116;51.502;7.414;2023-05-07T11:07:24;21.80;13.60
2543;DHT22;1116;51.502;7.414;2023-05-07T11:10:00;21.80;12.90
2543;DHT22;1116;51.502;7.414;2023-05-07T11:12:53;21.80;12.50
2543;DHT22;1116;51.502;7.414;2023-05-07T11:15:39;21.80;12.30
2543;DHT22;1116;51.502;7.414;2023-05-07T11:18:13;21.80;11.50
2543;DHT22;1116;51.502;7.414;2023-05-07T11:20:50;21.90;12.40
2543;DHT22;1116;51.502;7.414;2023-05-07T11:26:22;22.00;12.10
2543;DHT22;1116;51.502;7.414;2023-05-07T11:28:55;21.80;9.80
2543;DHT22;1116;51.502;7.414;2023-05-07T11:31:28;21.70;10.00
2543;DHT22;1116;51.502;7.414;2023-05-07T11:33:59;22.00;10.00
2543;DHT22;1116;51.502;7.414;2023-05-07T11:36:32;21.90;12.90
2543;DHT22;1116;51.502;7.414;2023-05-07T11:39:05;21.50;13.40
2543;DHT22;1116;51.502;7.414;2023-05-07T11:41:36;21.70;13.50
2543;DHT22;1116;51.502;7.414;2023-05-07T11:44:13;21.70;13.50
2543;DHT22;1116;51.502;7.414;2023-05-07T11:46:44;21.70;14.00
2543;DHT22;1116;51.502;7.414;2023-05-07T11:49:16;21.70;14.00
2543;DHT22;1116;51.502;7.414;2023-05-07T11:51:49;21.70;13.50
2543;DHT22;1116;51.502;7.414;2023-05-07T11:54:20;21.70;13.50
2543;DHT22;1116;51.502;7.414;2023-05-07T11:56:52;21.60;11.80
2543;DHT22;1116;51.502;7.414;2023-05-07T11:59:25;21.40;14.00
2543;DHT22;1116;51.502;7.414;2023-05-07T12:01:56;21.60;16.10
2543;DHT22;1116;51.502;7.414;2023-05-07T12:04:30;21.70;14.70
2543;DHT22;1116;51.502;7.414;2023-05-07T12:07:01;21.60;15.30
2543;DHT22;1116;51.502;7.414;2023-05-07T12:09:32;21.60;14.60
2543;DHT22;1116;51.502;7.414;2023-05-07T12:12:04;21.70;15.00
2543;DHT22;1116;51.502;7.414;2023-05-07T12:14:40;21.70;13.50
2543;DHT22;1116;51.502;7.414;2023-05-07T12:17:13;21.70;13.50
2543;DHT22;1116;51.502;7.414;2023-05-07T12:19:45;21.70;13.50
2543;DHT22;1116;51.502;7.414;2023-05-07T12:22:17;21.70;10.60
2543;DHT22;1116;51.502;7.414;2023-05-07T12:24:56;21.80;9.80
2543;DHT22;1116;51.502;7.414;2023-05-07T12:27:27;21.90;10.60
2543;DHT22;1116;51.502;7.414;2023-05-07T12:30:01;21.80;10.40
2543;DHT22;1116;51.502;7.414;2023-05-07T12:32:36;21.50;9.80
2543;DHT22;1116;51.502;7.414;2023-05-07T12:35:08;21.40;11.40
2543;DHT22;1116;51.502;7.414;2023-05-07T12:37:40;21.40;11.70
2543;DHT22;1116;51.502;7.414;2023-05-07T12:40:12;21.50;12.70
2543;DHT22;1116;51.502;7.414;2023-05-07T12:42:45;21.40;11.60
2543;DHT22;1116;51.502;7.414;2023-05-07T12:45:19;21.40;11.90
2543;DHT22;1116;51.502;7.414;2023-05-07T12:47:50;21.40;11.40
2543;DHT22;1116;51.502;7.414;2023-05-07T12:50:21;21.50;12.20
2543;DHT22;1116;51.502;7.414;2023-05-07T12:52:52;21.60;12.10
2543;DHT22;1116;51.502;7.414;2023-05-07T12:55:23;21.60;11.10
2543;DHT22;1116;51.502;7.414;2023-05-07T12:58:01;21.50;12.10
2543;DHT22;1116;51.502;7.414;2023-05-07T13:00:37;21.40;11.60
2543;DHT22;1116;51.502;7.414;2023-05-07T13:03:08;21.40;13.40
2543;DHT22;1116;51.502;7.414;2023-05-07T13:05:39;21.40;13.30
2543;DHT22;1116;51.502;7.414;2023-05-07T13:08:10;21.40;12.40
2543;DHT22;1116;51.502;7.414;2023-05-07T13:10:41;21.40;11.20
2543;DHT22;1116;51.502;7.414;2023-05-07T13:13:12;21.50;10.90
2543;DHT22;1116;51.502;7.414;2023-05-07T13:15:45;21.40;9.70
2543;DHT22;1116;51.502;7.414;2023-05-07T13:18:16;21.30;10.40
2543;DHT22;1116;51.502;7.414;2023-05-07T13:20:49;21.30;10.60
2543;DHT22;1116;51.502;7.414;2023-05-07T13:23:21;21.40;12.30
2543;DHT22;1116;51.502;7.414;2023-05-07T13:25:52;21.40;13.30
2543;DHT22;1116;51.502;7.414;2023-05-07T13:28:24;21.30;12.30
2543;DHT22;1116;51.502;7.414;2023-05-07T13:31:00;21.10;12.30
2543;DHT22;1116;51.502;7.414;2023-05-07T13:33:31;21.20;13.20
2543;DHT22;1116;51.502;7.414;2023-05-07T13:36:05;21.00;13.10
2543;DHT22;1116;51.502;7.414;2023-05-07T13:38:40;21.00;14.00
2543;DHT22;1116;51.502;7.414;2023-05-07T13:41:11;21.00;15.40
2543;DHT22;1116;51.502;7.414;2023-05-07T13:43:43;21.00;14.20
2543;DHT22;1116;51.502;7.414;2023-05-07T13:46:16;20.90;13.50
2543;DHT22;1116;51.502;7.414;2023-05-07T13:48:53;20.70;11.60
2543;DHT22;1116;51.502;7.414;2023-05-07T13:51:24;20.50;12.70
2543;DHT22;1116;51.502;7.414;2023-05-07T13:53:55;20.60;12.80
2543;DHT22;1116;51.502;7.414;2023-05-07T13:56:26;20.60;12.80
2543;DHT22;1116;51.502;7.414;2023-05-07T13:59:02;20.50;12.70
2543;DHT22;1116;51.502;7.414;2023-05-07T14:01:36;20.50;13.30
2543;DHT22;1116;51.502;7.414;2023-05-07T14:04:07;20.60;14.00
2543;DHT22;1116;51.502;7.414;2023-05-07T14:06:38;20.60;13.90
2543;DHT22;1116;51.502;7.414;2023-05-07T14:09:09;20.70;13.10
2543;DHT22;1116;51.502;7.414;2023-05-07T14:11:41;20.70;14.50
2543;DHT22;1116;51.502;7.414;2023-05-07T14:14:12;20.80;13.90
2543;DHT22;1116;51.502;7.414;2023-05-07T14:16:46;20.70;12.90
2543;DHT22;1116;51.502;7.414;2023-05-07T14:19:18;20.60;13.50
2543;DHT22;1116;51.502;7.414;2023-05-07T14:21:50;20.60;14.30
2543;DHT22;1116;51.502;7.414;2023-05-07T14:24:21;20.60;14.30
2543;DHT22;1116;51.502;7.414;2023-05-07T14:27:05;20.50;13.80
2543;DHT22;1116;51.502;7.414;2023-05-07T14:29:36;20.60;14.70
2543;DHT22;1116;51.502;7.414;2023-05-07T14:32:10;20.50;14.60
2543;DHT22;1116;51.502;7.414;2023-05-07T14:34:41;20.60;14.50
2543;DHT22;1116;51.502;7.414;2023-05-07T14:37:17;20.70;14.70
2543;DHT22;1116;51.502;7.414;2023-05-07T14:39:53;20.80;14.20
2543;DHT22;1116;51.502;7.414;2023-05-07T14:42:24;20.80;16.40
2543;DHT22;1116;51.502;7.414;2023-05-07T14:44:57;21.10;15.40
2543;DHT22;1116;51.502;7.414;2023-05-07T14:47:34;20.90;14.80
2543;DHT22;1116;51.502;7.414;2023-05-07T14:50:06;20.80;15.50
2543;DHT22;1116;51.502;7.414;2023-05-07T14:52:38;20.80;15.80
2543;DHT22;1116;51.502;7.414;2023-05-07T14:55:09;20.70;15.60
2543;DHT22;1116;51.502;7.414;2023-05-07T14:57:40;20.70;17.10
2543;DHT22;1116;51.502;7.414;2023-05-07T15:00:15;20.70;18.10
2543;DHT22;1116;51.502;7.414;2023-05-07T15:02:50;20.80;17.40
2543;DHT22;1116;51.502;7.414;2023-05-07T15:05:21;20.80;17.80
2543;DHT22;1116;51.502;7.414;2023-05-07T15:07:52;20.80;17.20
2543;DHT22;1116;51.502;7.414;2023-05-07T15:10:24;20.80;17.40
2543;DHT22;1116;51.502;7.414;2023-05-07T15:12:55;20.80;19.80
2543;DHT22;1116;51.502;7.414;2023-05-07T15:15:26;20.70;21.80
2543;DHT22;1116;51.502;7.414;2023-05-07T15:18:00;20.60;22.70
2543;DHT22;1116;51.502;7.414;2023-05-07T15:20:31;20.50;23.80
2543;DHT22;1116;51.502;7.414;2023-05-07T15:23:03;20.30;24.70
2543;DHT22;1116;51.502;7.414;2023-05-07T15:25:37;20.30;24.70
2543;DHT22;1116;51.502;7.414;2023-05-07T15:28:08;20.20;25.30
2543;DHT22;1116;51.502;7.414;2023-05-07T15:30:39;20.10;23.90
2543;DHT22;1116;51.502;7.414;2023-05-07T15:33:12;20.00;24.10
2543;DHT22;1116;51.502;7.414;2023-05-07T15:35:44;19.90;24.10
2543;DHT22;1116;51.502;7.414;2023-05-07T15:38:15;19.90;25.00
2543;DHT22;1116;51.502;7.414;2023-05-07T15:40:46;20.00;25.70
2543;DHT22;1116;51.502;7.414;2023-05-07T15:43:17;19.90;24.90
2543;DHT22;1116;51.502;7.414;2023-05-07T15:45:53;19.80;25.80
2543;DHT22;1116;51.502;7.414;2023-05-07T15:48:28;19.70;25.70
2543;DHT22;1116;51.502;7.414;2023-05-07T15:50:59;19.60;26.40
2543;DHT22;1116;51.502;7.414;2023-05-07T15:53:30;19.60;27.20
2543;DHT22;1116;51.502;7.414;2023-05-07T15:56:01;19.60;28.00
2543;DHT22;1116;51.502;7.414;2023-05-07T15:58:34;19.70;28.20
2543;DHT22;1116;51.502;7.414;2023-05-07T16:01:05;19.70;27.80
2543;DHT22;1116;51.502;7.414;2023-05-07T16:03:39;19.80;28.00
2543;DHT22;1116;51.502;7.414;2023-05-07T16:06:10;19.90;27.80
2543;DHT22;1116;51.502;7.414;2023-05-07T16:08:44;19.70;27.40
2543;DHT22;1116;51.502;7.414;2023-05-07T16:11:15;19.60;28.20
2543;DHT22;1116;51.502;7.414;2023-05-07T16:13:46;19.70;28.10
2543;DHT22;1116;51.502;7.414;2023-05-07T16:16:17;19.80;27.40
2543;DHT22;1116;51.502;7.414;2023-05-07T16:18:51;19.90;27.90
2543;DHT22;1116;51.502;7.414;2023-05-07T16:21:22;19.70;27.40
2543;DHT22;1116;51.502;7.414;2023-05-07T16:23:53;19.70;28.40
2543;DHT22;1116;51.502;7.414;2023-05-07T16:26:24;19.70;28.00
2543;DHT22;1116;51.502;7.414;2023-05-07T16:28:56;19.70;27.60
2543;DHT22;1116;51.502;7.414;2023-05-07T16:31:27;19.70;27.40
2543;DHT22;1116;51.502;7.414;2023-05-07T16:34:01;19.70;28.80
2543;DHT22;1116;51.502;7.414;2023-05-07T16:36:32;19.60;27.90
2543;DHT22;1116;51.502;7.414;2023-05-07T16:39:03;19.70;27.60
2543;DHT22;1116;51.502;7.414;2023-05-07T16:41:34;19.70;27.20
2543;DHT22;1116;51.502;7.414;2023-05-07T16:44:05;19.60;26.90
2543;DHT22;1116;51.502;7.414;2023-05-07T16:46:36;19.60;26.10